• Join FlightAware (Why Join?)
  • Login
  • US Flag 
08:21PM EDT


 

Airport Tracker/Info


-or-


 

Live Flight TrackerFlight Track Log ✈ UAL5887 ✈ 12-Feb-2014 ✈ KLAN - KORD

Flight Track Log - Related Links

Times and Time Zones

All times are in EST time to prevent confusion due to time zone crossing. See the UAL5887 flight status page for this flight to view local times or setup timezone preferences in your user account.

Time Position Orientation Groundspeed Altitude Reporting Facility
EST Latitude Longitude Course Direction KTS MPH feet Rate Location/Type
06:22AM 42.7783 -84.6233 270° West 134 154 2,500  Level Cleveland Center
06:23AM 42.7733 -84.6672 261° West 164 189 4,000 1,680 Climbing Chicago Center
06:24AM 42.7778 -84.7472 274° West 204 235 5,700 2,100 Climbing Chicago Center
06:25AM 42.7667 -84.9445 270° West  Level FlightAware Approximate
06:25AM 42.7794 -84.8417 271° West 239 275 8,300  Level Chicago Center
06:26AM 42.7716 -85.0342 281° West  Level FlightAware Approximate
06:26AM 42.7806 -84.9369 271° West 250 288 10,500  Level Chicago Center
06:27AM 42.7833 -85.1230 270° West  Level FlightAware Approximate
06:27AM 42.7817 -85.0686 271° West 283 326 11,500  Level Chicago Center
06:28AM 42.7831 -85.1936 271° West 318 366 12,900 1,380 Climbing Chicago Center
06:29AM 42.7842 -85.3200 271° West 332 382 14,400 1,500 Climbing Chicago Center
06:30AM 42.7861 -85.4456 271° West 332 382 15,900 1,380 Climbing Chicago Center
06:31AM 42.7731 -85.5708 262° West 336 387 17,300 1,020 Climbing Chicago Center
06:32AM 42.7514 -85.6964 257° West 339 390 18,000 780 Climbing Chicago Center
06:33AM 42.7278 -85.8258 256° West 347 399 18,900 900 Climbing Chicago Center
06:34AM 42.7036 -85.9572 256° West 355 409 19,900 960 Climbing Chicago Center
06:35AM 42.6792 -86.0925 256° West 363 418 20,900 960 Climbing Chicago Center
06:36AM 42.6539 -86.2278 256° West 367 422 21,900 420 Climbing Chicago Center
06:37AM 42.6278 -86.3647 256° West 372 428 21,800 -1,200 Descending Chicago Center
06:38AM 42.6019 -86.5050 256° West 381 438 19,600 -1,980 Descending Chicago Center
06:39AM 42.5767 -86.6361 255° West 363 418 17,900 -1,860 Descending Chicago Center
06:40AM 42.5531 -86.7603 256° West 344 396 15,900 -2,040 Descending Chicago Center
06:41AM 42.5203 -86.8739 249° West 328 377 13,800 -2,100 Descending Chicago Center
06:42AM 42.4864 -86.9967 250° West 344 396 11,700 -2,040 Descending Chicago Center
06:43AM 42.4558 -87.1081 250° West 319 367 9,800 -1,380 Descending Chicago Center
06:44AM 42.4308 -87.1989 250° West 264 304 9,000 -420 Descending Chicago Center
06:45AM 42.4069 -87.2869 250° West 251 289 9,000 -120 Level Chicago Center
06:46AM 42.3725 -87.3622 238° Southwest 253 291 8,800 -720 Descending Chicago Center
06:47AM 42.3186 -87.4103 213° Southwest 254 292 7,600 -1,440 Descending Chicago Center
06:48AM 42.2517 -87.4700 213° Southwest 241 277 6,000 -1,320 Descending Chicago Center
06:49AM 42.1997 -87.5200 215° Southwest 232 267 5,000 -600 Descending Chicago Center
06:50AM 42.1472 -87.5689 215° Southwest 230 265 4,800 -540 Descending Chicago Center
06:51AM 42.0947 -87.6158 214° Southwest 228 262 4,000 -420 Descending Chicago Center
06:52AM 42.0439 -87.6653 216° Southwest 226 260 4,000 -180 Level Chicago Center
06:53AM 42.0000 -87.7142 220° Southwest 217 250 3,700 -780 Descending Chicago Center
06:54AM 41.9822 -87.7694 247° West 189 217 2,500 -960 Descending Chicago Center
06:55AM 41.9842 -87.8222 273° West 165 190 1,800 -780 Descending Chicago Center
06:56AM 41.9833 -87.8667 269° West 131 151 1,100 -780 Descending Chicago TRACON